Pagrindinis puslapis
METAR-TAF:

METAR-TAF

Oro uostai :

Laupheim, Vokietija

platuma: 48-13N, ilguma: 009-55E, Aukštis: 538 m

Dabartinis oras

Ataskaita buvo paskelbta 21 minutes, ne 09:20 UTC
Vėjas 7 kt iš Rytų/Šiaurės Rytų
Temperatūra 11°C
Drėgmė 58%
Slėgis 1028 hPa
Matomumas 10 km arba daugiau
Su prošvaistėmis ne aukštis 27000 ft

METAR: ETHL 200920Z 06007KT 9999 BKN270 11/03 Q1028 BLU+BLU+

Laikas: 11:41 (09:41 UTC)

Prognozė

Ataskaita buvo paskelbta 2 valandos ir 21 minutes, ne 07:20 UTC
Prognozė galioja nuo 20 metu 08 UTC su 20 metu 17 UTC
Vėjas 10 kt iš Rytų/Šiaurės Rytų
Matomumas 10 km arba daugiau
Su prošvaistėmis ne aukštis 28000 ft

TAF: ETHL 200720Z 2008/2017 06010KT 9999 NSW BKN280

Orai ataskaitas ir orų prognozės (METAR, TAF).

turimą stotys yra geltonos ir raudonos taškus žemėlapyje.

Perkelti pele per norėdami pamatyti stoties vardą.

Tada spustelėkite, norėdami matyti oro stebėjimo ir prognozės.

Norėdami pakeisti žemėlapį: spustelėkite ant žalios mygtukų su juodo kryžiaus žemyn,; žalią mygtuką su brūkšneliu, jei norite nutolinti; arba žalių rodyklių gretimoms žemėlapius.


METAR-TAF: